sensor_id;sensor_type;location;lat;lon;timestamp;P1;durP1;ratioP1;P2;durP2;ratioP2
2544;SDS011;36212;48.838;9.142;2023-04-06T00:01:14;10.20;;;9.27;;
2544;SDS011;36212;48.838;9.142;2023-04-06T00:03:47;11.30;;;10.10;;
2544;SDS011;36212;48.838;9.142;2023-04-06T00:06:19;11.82;;;10.40;;
2544;SDS011;36212;48.838;9.142;2023-04-06T00:08:52;9.48;;;8.40;;
2544;SDS011;36212;48.838;9.142;2023-04-06T00:11:25;11.88;;;9.60;;
2544;SDS011;36212;48.838;9.142;2023-04-06T00:13:58;13.95;;;9.88;;
2544;SDS011;36212;48.838;9.142;2023-04-06T00:16:30;11.63;;;9.40;;
2544;SDS011;36212;48.838;9.142;2023-04-06T00:19:03;12.60;;;11.30;;
2544;SDS011;36212;48.838;9.142;2023-04-06T00:21:35;13.50;;;10.10;;
2544;SDS011;36212;48.838;9.142;2023-04-06T00:24:07;12.40;;;11.10;;
2544;SDS011;36212;48.838;9.142;2023-04-06T00:26:39;10.50;;;9.55;;
2544;SDS011;36212;48.838;9.142;2023-04-06T00:29:11;15.13;;;10.93;;
2544;SDS011;36212;48.838;9.142;2023-04-06T00:31:44;10.38;;;9.38;;
2544;SDS011;36212;48.838;9.142;2023-04-06T00:34:16;10.98;;;9.85;;
2544;SDS011;36212;48.838;9.142;2023-04-06T00:36:48;11.65;;;10.55;;
2544;SDS011;36212;48.838;9.142;2023-04-06T00:39:20;10.88;;;9.80;;
2544;SDS011;36212;48.838;9.142;2023-04-06T00:41:53;10.00;;;9.00;;
2544;SDS011;36212;48.838;9.142;2023-04-06T00:44:26;11.30;;;9.98;;
2544;SDS011;36212;48.838;9.142;2023-04-06T00:46:59;11.25;;;10.15;;
2544;SDS011;36212;48.838;9.142;2023-04-06T00:49:31;11.98;;;10.50;;
2544;SDS011;36212;48.838;9.142;2023-04-06T00:52:05;11.63;;;10.50;;
2544;SDS011;36212;48.838;9.142;2023-04-06T00:54:37;13.35;;;10.90;;
2544;SDS011;36212;48.838;9.142;2023-04-06T00:57:13;11.00;;;9.80;;
2544;SDS011;36212;48.838;9.142;2023-04-06T00:59:45;11.93;;;9.60;;
2544;SDS011;36212;48.838;9.142;2023-04-06T01:02:18;11.63;;;10.07;;
2544;SDS011;36212;48.838;9.142;2023-04-06T01:04:51;12.85;;;11.20;;
2544;SDS011;36212;48.838;9.142;2023-04-06T01:07:24;10.95;;;9.68;;
2544;SDS011;36212;48.838;9.142;2023-04-06T01:09:57;11.85;;;10.70;;
2544;SDS011;36212;48.838;9.142;2023-04-06T01:12:29;11.50;;;10.15;;
2544;SDS011;36212;48.838;9.142;2023-04-06T01:15:02;14.13;;;11.23;;
2544;SDS011;36212;48.838;9.142;2023-04-06T01:17:37;11.00;;;9.90;;
2544;SDS011;36212;48.838;9.142;2023-04-06T01:20:09;11.63;;;10.48;;
2544;SDS011;36212;48.838;9.142;2023-04-06T01:22:41;14.38;;;10.60;;
2544;SDS011;36212;48.838;9.142;2023-04-06T01:25:13;12.82;;;10.75;;
2544;SDS011;36212;48.838;9.142;2023-04-06T01:27:46;10.77;;;9.73;;
2544;SDS011;36212;48.838;9.142;2023-04-06T01:30:18;10.95;;;9.93;;
2544;SDS011;36212;48.838;9.142;2023-04-06T01:32:51;12.35;;;9.68;;
2544;SDS011;36212;48.838;9.142;2023-04-06T01:35:25;12.43;;;10.40;;
2544;SDS011;36212;48.838;9.142;2023-04-06T01:37:58;11.57;;;10.35;;
2544;SDS011;36212;48.838;9.142;2023-04-06T01:40:31;11.48;;;10.25;;
2544;SDS011;36212;48.838;9.142;2023-04-06T01:43:03;16.27;;;10.82;;
2544;SDS011;36212;48.838;9.142;2023-04-06T01:45:36;11.65;;;10.30;;
2544;SDS011;36212;48.838;9.142;2023-04-06T01:48:08;13.50;;;11.15;;
2544;SDS011;36212;48.838;9.142;2023-04-06T01:50:40;14.60;;;10.70;;
2544;SDS011;36212;48.838;9.142;2023-04-06T01:53:13;14.35;;;11.27;;
2544;SDS011;36212;48.838;9.142;2023-04-06T01:55:46;11.20;;;10.10;;
2544;SDS011;36212;48.838;9.142;2023-04-06T01:58:18;11.95;;;10.77;;
2544;SDS011;36212;48.838;9.142;2023-04-06T02:00:50;15.55;;;11.65;;
2544;SDS011;36212;48.838;9.142;2023-04-06T02:03:23;12.20;;;10.93;;
2544;SDS011;36212;48.838;9.142;2023-04-06T02:05:55;13.52;;;11.90;;
2544;SDS011;36212;48.838;9.142;2023-04-06T02:08:27;12.90;;;11.40;;
2544;SDS011;36212;48.838;9.142;2023-04-06T02:10:59;12.27;;;11.00;;
2544;SDS011;36212;48.838;9.142;2023-04-06T02:13:32;11.80;;;10.70;;
2544;SDS011;36212;48.838;9.142;2023-04-06T02:16:04;13.50;;;11.13;;
2544;SDS011;36212;48.838;9.142;2023-04-06T02:18:37;12.63;;;11.32;;
2544;SDS011;36212;48.838;9.142;2023-04-06T02:21:09;11.80;;;10.45;;
2544;SDS011;36212;48.838;9.142;2023-04-06T02:23:41;11.40;;;10.18;;
2544;SDS011;36212;48.838;9.142;2023-04-06T02:26:13;15.32;;;11.63;;
2544;SDS011;36212;48.838;9.142;2023-04-06T02:28:46;12.45;;;10.85;;
2544;SDS011;36212;48.838;9.142;2023-04-06T02:31:19;16.48;;;11.50;;
2544;SDS011;36212;48.838;9.142;2023-04-06T02:33:52;12.40;;;10.80;;
2544;SDS011;36212;48.838;9.142;2023-04-06T02:36:24;13.15;;;11.63;;
2544;SDS011;36212;48.838;9.142;2023-04-06T02:38:57;14.10;;;11.68;;
2544;SDS011;36212;48.838;9.142;2023-04-06T02:41:29;11.65;;;10.45;;
2544;SDS011;36212;48.838;9.142;2023-04-06T02:44:02;11.52;;;10.38;;
2544;SDS011;36212;48.838;9.142;2023-04-06T02:46:37;14.30;;;11.35;;
2544;SDS011;36212;48.838;9.142;2023-04-06T02:49:09;12.88;;;11.57;;
2544;SDS011;36212;48.838;9.142;2023-04-06T02:51:42;13.48;;;11.60;;
2544;SDS011;36212;48.838;9.142;2023-04-06T02:54:14;13.10;;;11.63;;
2544;SDS011;36212;48.838;9.142;2023-04-06T02:56:46;13.00;;;11.25;;
2544;SDS011;36212;48.838;9.142;2023-04-06T02:59:18;13.32;;;10.80;;
2544;SDS011;36212;48.838;9.142;2023-04-06T03:01:51;11.75;;;10.10;;
2544;SDS011;36212;48.838;9.142;2023-04-06T03:04:23;11.00;;;10.00;;
2544;SDS011;36212;48.838;9.142;2023-04-06T03:06:56;12.68;;;11.05;;
2544;SDS011;36212;48.838;9.142;2023-04-06T03:09:31;11.50;;;10.32;;
2544;SDS011;36212;48.838;9.142;2023-04-06T03:12:06;12.93;;;11.35;;
2544;SDS011;36212;48.838;9.142;2023-04-06T03:14:40;13.05;;;11.45;;
2544;SDS011;36212;48.838;9.142;2023-04-06T03:17:13;11.13;;;9.95;;
2544;SDS011;36212;48.838;9.142;2023-04-06T03:19:45;10.50;;;9.60;;
2544;SDS011;36212;48.838;9.142;2023-04-06T03:22:17;15.82;;;10.60;;
2544;SDS011;36212;48.838;9.142;2023-04-06T03:24:49;13.52;;;12.23;;
2544;SDS011;36212;48.838;9.142;2023-04-06T03:27:22;14.95;;;11.82;;
2544;SDS011;36212;48.838;9.142;2023-04-06T03:29:54;16.40;;;10.65;;
2544;SDS011;36212;48.838;9.142;2023-04-06T03:32:26;11.32;;;10.15;;
2544;SDS011;36212;48.838;9.142;2023-04-06T03:34:58;11.57;;;10.23;;
2544;SDS011;36212;48.838;9.142;2023-04-06T03:37:31;12.32;;;11.02;;
2544;SDS011;36212;48.838;9.142;2023-04-06T03:40:03;11.20;;;10.00;;
2544;SDS011;36212;48.838;9.142;2023-04-06T03:42:36;12.35;;;11.10;;
2544;SDS011;36212;48.838;9.142;2023-04-06T03:45:09;14.35;;;11.13;;
2544;SDS011;36212;48.838;9.142;2023-04-06T03:47:43;12.20;;;10.90;;
2544;SDS011;36212;48.838;9.142;2023-04-06T03:50:15;12.57;;;11.25;;
2544;SDS011;36212;48.838;9.142;2023-04-06T03:52:48;11.35;;;10.15;;
2544;SDS011;36212;48.838;9.142;2023-04-06T03:55:20;13.55;;;10.65;;
2544;SDS011;36212;48.838;9.142;2023-04-06T03:57:52;12.07;;;10.85;;
2544;SDS011;36212;48.838;9.142;2023-04-06T04:00:24;13.15;;;11.80;;
2544;SDS011;36212;48.838;9.142;2023-04-06T04:02:56;12.35;;;11.00;;
2544;SDS011;36212;48.838;9.142;2023-04-06T04:05:29;12.75;;;11.45;;
2544;SDS011;36212;48.838;9.142;2023-04-06T04:08:01;11.10;;;10.07;;
2544;SDS011;36212;48.838;9.142;2023-04-06T04:10:33;13.73;;;11.68;;
2544;SDS011;36212;48.838;9.142;2023-04-06T04:13:06;15.80;;;12.05;;
2544;SDS011;36212;48.838;9.142;2023-04-06T04:15:38;13.23;;;11.82;;
2544;SDS011;36212;48.838;9.142;2023-04-06T04:18:10;13.10;;;11.25;;
2544;SDS011;36212;48.838;9.142;2023-04-06T04:20:42;15.50;;;11.20;;
2544;SDS011;36212;48.838;9.142;2023-04-06T04:23:15;12.70;;;10.65;;
2544;SDS011;36212;48.838;9.142;2023-04-06T04:25:47;13.88;;;11.32;;
2544;SDS011;36212;48.838;9.142;2023-04-06T04:28:21;13.40;;;10.88;;
2544;SDS011;36212;48.838;9.142;2023-04-06T04:30:53;13.70;;;12.23;;
2544;SDS011;36212;48.838;9.142;2023-04-06T04:33:25;16.52;;;11.50;;
2544;SDS011;36212;48.838;9.142;2023-04-06T04:35:58;12.00;;;10.75;;
2544;SDS011;36212;48.838;9.142;2023-04-06T04:38:30;18.85;;;11.70;;
2544;SDS011;36212;48.838;9.142;2023-04-06T04:41:02;14.82;;;11.35;;
2544;SDS011;36212;48.838;9.142;2023-04-06T04:43:34;15.77;;;12.45;;
2544;SDS011;36212;48.838;9.142;2023-04-06T04:46:07;14.23;;;12.05;;
2544;SDS011;36212;48.838;9.142;2023-04-06T04:48:40;14.45;;;11.60;;
2544;SDS011;36212;48.838;9.142;2023-04-06T04:51:12;15.57;;;12.13;;
2544;SDS011;36212;48.838;9.142;2023-04-06T04:53:45;12.13;;;10.90;;
2544;SDS011;36212;48.838;9.142;2023-04-06T04:56:17;11.38;;;10.38;;
2544;SDS011;36212;48.838;9.142;2023-04-06T04:58:49;13.88;;;11.30;;
2544;SDS011;36212;48.838;9.142;2023-04-06T05:01:22;13.27;;;11.32;;
2544;SDS011;36212;48.838;9.142;2023-04-06T05:03:55;15.60;;;11.57;;
2544;SDS011;36212;48.838;9.142;2023-04-06T05:06:27;14.18;;;12.40;;
2544;SDS011;36212;48.838;9.142;2023-04-06T05:09:00;15.80;;;12.45;;
2544;SDS011;36212;48.838;9.142;2023-04-06T05:11:33;13.60;;;11.40;;
2544;SDS011;36212;48.838;9.142;2023-04-06T05:14:05;14.50;;;11.43;;
2544;SDS011;36212;48.838;9.142;2023-04-06T05:16:37;15.25;;;11.20;;
2544;SDS011;36212;48.838;9.142;2023-04-06T05:19:10;18.65;;;11.50;;
2544;SDS011;36212;48.838;9.142;2023-04-06T05:21:43;13.55;;;12.25;;
2544;SDS011;36212;48.838;9.142;2023-04-06T05:24:15;13.13;;;11.80;;
2544;SDS011;36212;48.838;9.142;2023-04-06T05:26:47;13.90;;;11.93;;
2544;SDS011;36212;48.838;9.142;2023-04-06T05:29:20;16.17;;;12.65;;
2544;SDS011;36212;48.838;9.142;2023-04-06T05:31:53;17.95;;;13.40;;
2544;SDS011;36212;48.838;9.142;2023-04-06T05:34:25;15.15;;;12.95;;
2544;SDS011;36212;48.838;9.142;2023-04-06T05:36:57;15.45;;;12.50;;
2544;SDS011;36212;48.838;9.142;2023-04-06T05:39:30;16.98;;;12.77;;
2544;SDS011;36212;48.838;9.142;2023-04-06T05:42:03;18.30;;;12.82;;
2544;SDS011;36212;48.838;9.142;2023-04-06T05:44:38;22.10;;;14.48;;
2544;SDS011;36212;48.838;9.142;2023-04-06T05:47:11;24.15;;;14.27;;
2544;SDS011;36212;48.838;9.142;2023-04-06T05:49:43;14.23;;;12.77;;
2544;SDS011;36212;48.838;9.142;2023-04-06T05:52:15;18.15;;;12.90;;
2544;SDS011;36212;48.838;9.142;2023-04-06T05:54:47;19.20;;;13.20;;
2544;SDS011;36212;48.838;9.142;2023-04-06T05:57:21;15.93;;;13.85;;
2544;SDS011;36212;48.838;9.142;2023-04-06T05:59:54;18.20;;;12.45;;
2544;SDS011;36212;48.838;9.142;2023-04-06T06:02:26;15.00;;;13.55;;
2544;SDS011;36212;48.838;9.142;2023-04-06T06:05:00;24.58;;;14.50;;
2544;SDS011;36212;48.838;9.142;2023-04-06T06:07:33;14.38;;;12.88;;
2544;SDS011;36212;48.838;9.142;2023-04-06T06:10:06;15.90;;;14.30;;
2544;SDS011;36212;48.838;9.142;2023-04-06T06:12:39;16.33;;;14.60;;
2544;SDS011;36212;48.838;9.142;2023-04-06T06:15:11;20.38;;;13.10;;
2544;SDS011;36212;48.838;9.142;2023-04-06T06:17:44;18.23;;;13.68;;
2544;SDS011;36212;48.838;9.142;2023-04-06T06:20:17;17.08;;;13.73;;
2544;SDS011;36212;48.838;9.142;2023-04-06T06:22:49;17.23;;;14.02;;
2544;SDS011;36212;48.838;9.142;2023-04-06T06:25:22;16.52;;;13.77;;
2544;SDS011;36212;48.838;9.142;2023-04-06T06:27:54;18.20;;;14.80;;
2544;SDS011;36212;48.838;9.142;2023-04-06T06:30:27;19.42;;;14.88;;
2544;SDS011;36212;48.838;9.142;2023-04-06T06:33:00;16.38;;;14.73;;
2544;SDS011;36212;48.838;9.142;2023-04-06T06:35:33;18.35;;;14.40;;
2544;SDS011;36212;48.838;9.142;2023-04-06T06:38:05;15.57;;;13.98;;
2544;SDS011;36212;48.838;9.142;2023-04-06T06:40:37;14.93;;;13.55;;
2544;SDS011;36212;48.838;9.142;2023-04-06T06:43:11;14.88;;;13.35;;
2544;SDS011;36212;48.838;9.142;2023-04-06T06:45:43;15.90;;;14.02;;
2544;SDS011;36212;48.838;9.142;2023-04-06T06:48:16;14.00;;;12.70;;
2544;SDS011;36212;48.838;9.142;2023-04-06T06:50:48;15.90;;;12.48;;
2544;SDS011;36212;48.838;9.142;2023-04-06T06:53:21;14.60;;;13.30;;
2544;SDS011;36212;48.838;9.142;2023-04-06T06:55:53;14.15;;;12.73;;
2544;SDS011;36212;48.838;9.142;2023-04-06T06:58:26;14.82;;;13.63;;
2544;SDS011;36212;48.838;9.142;2023-04-06T07:00:58;13.80;;;12.38;;
2544;SDS011;36212;48.838;9.142;2023-04-06T07:03:32;15.70;;;14.07;;
2544;SDS011;36212;48.838;9.142;2023-04-06T07:06:04;15.20;;;12.48;;
2544;SDS011;36212;48.838;9.142;2023-04-06T07:08:37;14.40;;;13.20;;
2544;SDS011;36212;48.838;9.142;2023-04-06T07:11:09;15.18;;;13.35;;
2544;SDS011;36212;48.838;9.142;2023-04-06T07:13:42;14.80;;;13.30;;
2544;SDS011;36212;48.838;9.142;2023-04-06T07:16:15;15.20;;;12.27;;
2544;SDS011;36212;48.838;9.142;2023-04-06T07:18:48;14.40;;;13.02;;
2544;SDS011;36212;48.838;9.142;2023-04-06T07:21:20;13.68;;;12.38;;
2544;SDS011;36212;48.838;9.142;2023-04-06T07:23:52;14.18;;;12.75;;
2544;SDS011;36212;48.838;9.142;2023-04-06T07:26:25;12.82;;;11.73;;
2544;SDS011;36212;48.838;9.142;2023-04-06T07:28:57;12.50;;;11.50;;
2544;SDS011;36212;48.838;9.142;2023-04-06T07:31:29;13.50;;;12.20;;
2544;SDS011;36212;48.838;9.142;2023-04-06T07:34:02;14.07;;;12.55;;
2544;SDS011;36212;48.838;9.142;2023-04-06T07:36:34;13.80;;;12.50;;
2544;SDS011;36212;48.838;9.142;2023-04-06T07:39:07;12.50;;;11.40;;
2544;SDS011;36212;48.838;9.142;2023-04-06T07:41:39;14.90;;;12.23;;
2544;SDS011;36212;48.838;9.142;2023-04-06T07:44:12;14.02;;;12.57;;
2544;SDS011;36212;48.838;9.142;2023-04-06T07:46:44;14.32;;;13.02;;
2544;SDS011;36212;48.838;9.142;2023-04-06T07:49:16;14.32;;;12.82;;
2544;SDS011;36212;48.838;9.142;2023-04-06T07:51:51;18.55;;;13.02;;
2544;SDS011;36212;48.838;9.142;2023-04-06T07:54:23;14.63;;;13.20;;
2544;SDS011;36212;48.838;9.142;2023-04-06T07:56:56;13.65;;;11.90;;
2544;SDS011;36212;48.838;9.142;2023-04-06T07:59:28;13.07;;;11.82;;
2544;SDS011;36212;48.838;9.142;2023-04-06T08:02:01;14.95;;;11.80;;
2544;SDS011;36212;48.838;9.142;2023-04-06T08:04:33;17.88;;;15.98;;
2544;SDS011;36212;48.838;9.142;2023-04-06T08:07:07;86.13;;;23.65;;
2544;SDS011;36212;48.838;9.142;2023-04-06T08:09:39;17.95;;;13.02;;
2544;SDS011;36212;48.838;9.142;2023-04-06T08:12:12;16.45;;;14.57;;
2544;SDS011;36212;48.838;9.142;2023-04-06T08:14:45;15.80;;;14.00;;
2544;SDS011;36212;48.838;9.142;2023-04-06T08:17:18;13.90;;;12.63;;
2544;SDS011;36212;48.838;9.142;2023-04-06T08:19:50;14.05;;;12.70;;
2544;SDS011;36212;48.838;9.142;2023-04-06T08:22:23;14.57;;;13.10;;
2544;SDS011;36212;48.838;9.142;2023-04-06T08:24:55;16.90;;;12.73;;
2544;SDS011;36212;48.838;9.142;2023-04-06T08:27:27;14.55;;;13.05;;
2544;SDS011;36212;48.838;9.142;2023-04-06T08:30:00;12.98;;;11.77;;
2544;SDS011;36212;48.838;9.142;2023-04-06T08:32:33;14.77;;;12.70;;
2544;SDS011;36212;48.838;9.142;2023-04-06T08:35:06;13.68;;;12.30;;
2544;SDS011;36212;48.838;9.142;2023-04-06T08:37:39;13.10;;;11.90;;
2544;SDS011;36212;48.838;9.142;2023-04-06T08:40:12;16.83;;;13.77;;
2544;SDS011;36212;48.838;9.142;2023-04-06T08:42:49;13.80;;;12.35;;
2544;SDS011;36212;48.838;9.142;2023-04-06T08:45:25;13.63;;;12.43;;
2544;SDS011;36212;48.838;9.142;2023-04-06T08:47:58;12.90;;;11.70;;
2544;SDS011;36212;48.838;9.142;2023-04-06T08:50:35;13.77;;;11.82;;
2544;SDS011;36212;48.838;9.142;2023-04-06T08:53:09;13.18;;;11.80;;
2544;SDS011;36212;48.838;9.142;2023-04-06T08:55:43;11.15;;;10.13;;
2544;SDS011;36212;48.838;9.142;2023-04-06T08:58:16;11.73;;;10.48;;
2544;SDS011;36212;48.838;9.142;2023-04-06T09:01:11;13.00;;;10.32;;
2544;SDS011;36212;48.838;9.142;2023-04-06T09:03:48;11.90;;;10.82;;
2544;SDS011;36212;48.838;9.142;2023-04-06T09:06:26;13.02;;;11.73;;
2544;SDS011;36212;48.838;9.142;2023-04-06T09:08:59;11.75;;;10.55;;
2544;SDS011;36212;48.838;9.142;2023-04-06T09:11:48;10.52;;;9.60;;
2544;SDS011;36212;48.838;9.142;2023-04-06T09:14:35;11.70;;;10.60;;
2544;SDS011;36212;48.838;9.142;2023-04-06T09:17:19;12.52;;;11.23;;
2544;SDS011;36212;48.838;9.142;2023-04-06T09:19:59;11.13;;;9.88;;
2544;SDS011;36212;48.838;9.142;2023-04-06T09:22:37;14.50;;;12.02;;
2544;SDS011;36212;48.838;9.142;2023-04-06T09:25:18;11.40;;;10.27;;
2544;SDS011;36212;48.838;9.142;2023-04-06T09:27:58;14.43;;;9.95;;
2544;SDS011;36212;48.838;9.142;2023-04-06T09:30:33;11.57;;;10.48;;
2544;SDS011;36212;48.838;9.142;2023-04-06T09:33:24;10.85;;;9.95;;
2544;SDS011;36212;48.838;9.142;2023-04-06T09:35:57;11.13;;;10.23;;
2544;SDS011;36212;48.838;9.142;2023-04-06T09:38:29;12.38;;;11.27;;
2544;SDS011;36212;48.838;9.142;2023-04-06T09:41:02;10.57;;;9.65;;
2544;SDS011;36212;48.838;9.142;2023-04-06T09:43:35;10.35;;;9.45;;
2544;SDS011;36212;48.838;9.142;2023-04-06T09:46:07;11.15;;;9.10;;
2544;SDS011;36212;48.838;9.142;2023-04-06T09:48:41;10.85;;;9.85;;
2544;SDS011;36212;48.838;9.142;2023-04-06T09:51:14;10.27;;;9.38;;
2544;SDS011;36212;48.838;9.142;2023-04-06T09:53:54;10.80;;;9.70;;
2544;SDS011;36212;48.838;9.142;2023-04-06T09:59:31;12.75;;;10.10;;
2544;SDS011;36212;48.838;9.142;2023-04-06T10:08:28;11.23;;;10.10;;
2544;SDS011;36212;48.838;9.142;2023-04-06T10:11:04;10.73;;;9.48;;
2544;SDS011;36212;48.838;9.142;2023-04-06T10:13:38;10.93;;;9.90;;
2544;SDS011;36212;48.838;9.142;2023-04-06T10:16:12;11.55;;;10.38;;
2544;SDS011;36212;48.838;9.142;2023-04-06T10:18:49;11.95;;;10.95;;
2544;SDS011;36212;48.838;9.142;2023-04-06T10:21:31;13.90;;;11.45;;
2544;SDS011;36212;48.838;9.142;2023-04-06T10:24:09;10.95;;;9.95;;
2544;SDS011;36212;48.838;9.142;2023-04-06T10:26:42;11.27;;;10.20;;
2544;SDS011;36212;48.838;9.142;2023-04-06T10:29:27;11.18;;;10.05;;
2544;SDS011;36212;48.838;9.142;2023-04-06T10:32:16;12.00;;;10.88;;
2544;SDS011;36212;48.838;9.142;2023-04-06T10:34:49;11.52;;;10.48;;
2544;SDS011;36212;48.838;9.142;2023-04-06T10:37:21;12.35;;;11.00;;
2544;SDS011;36212;48.838;9.142;2023-04-06T10:39:54;11.95;;;10.77;;
2544;SDS011;36212;48.838;9.142;2023-04-06T10:42:36;11.25;;;10.23;;
2544;SDS011;36212;48.838;9.142;2023-04-06T10:45:20;11.25;;;10.15;;
2544;SDS011;36212;48.838;9.142;2023-04-06T10:48:01;10.95;;;10.02;;
2544;SDS011;36212;48.838;9.142;2023-04-06T10:50:50;11.43;;;10.43;;
2544;SDS011;36212;48.838;9.142;2023-04-06T10:53:27;9.80;;;8.88;;
2544;SDS011;36212;48.838;9.142;2023-04-06T10:56:03;11.32;;;10.05;;
2544;SDS011;36212;48.838;9.142;2023-04-06T10:58:44;9.38;;;8.68;;
2544;SDS011;36212;48.838;9.142;2023-04-06T11:01:20;11.25;;;10.15;;
2544;SDS011;36212;48.838;9.142;2023-04-06T11:03:55;10.43;;;9.50;;
2544;SDS011;36212;48.838;9.142;2023-04-06T11:06:31;9.98;;;9.05;;
2544;SDS011;36212;48.838;9.142;2023-04-06T11:09:04;9.55;;;8.75;;
2544;SDS011;36212;48.838;9.142;2023-04-06T11:11:38;10.75;;;9.70;;
2544;SDS011;36212;48.838;9.142;2023-04-06T11:14:11;10.43;;;9.52;;
2544;SDS011;36212;48.838;9.142;2023-04-06T11:16:45;10.80;;;9.85;;
2544;SDS011;36212;48.838;9.142;2023-04-06T11:19:22;15.45;;;11.57;;
2544;SDS011;36212;48.838;9.142;2023-04-06T11:21:54;14.38;;;10.80;;
2544;SDS011;36212;48.838;9.142;2023-04-06T11:24:38;10.27;;;9.27;;
2544;SDS011;36212;48.838;9.142;2023-04-06T11:27:10;10.23;;;9.32;;
2544;SDS011;36212;48.838;9.142;2023-04-06T11:29:45;10.80;;;9.80;;
2544;SDS011;36212;48.838;9.142;2023-04-06T11:32:21;10.75;;;9.65;;
2544;SDS011;36212;48.838;9.142;2023-04-06T11:34:57;10.05;;;9.15;;
2544;SDS011;36212;48.838;9.142;2023-04-06T11:37:30;9.35;;;8.45;;
2544;SDS011;36212;48.838;9.142;2023-04-06T11:40:07;10.77;;;9.75;;
2544;SDS011;36212;48.838;9.142;2023-04-06T11:42:40;9.73;;;8.82;;
2544;SDS011;36212;48.838;9.142;2023-04-06T11:45:22;10.52;;;9.60;;
2544;SDS011;36212;48.838;9.142;2023-04-06T11:48:00;9.53;;;8.73;;
2544;SDS011;36212;48.838;9.142;2023-04-06T11:50:36;9.70;;;8.90;;
2544;SDS011;36212;48.838;9.142;2023-04-06T11:53:08;9.60;;;8.70;;
2544;SDS011;36212;48.838;9.142;2023-04-06T11:55:41;10.60;;;8.93;;
2544;SDS011;36212;48.838;9.142;2023-04-06T11:58:17;10.73;;;9.70;;
2544;SDS011;36212;48.838;9.142;2023-04-06T12:00:49;10.80;;;9.63;;
2544;SDS011;36212;48.838;9.142;2023-04-06T12:03:21;9.40;;;8.60;;
2544;SDS011;36212;48.838;9.142;2023-04-06T12:05:54;9.60;;;8.70;;
2544;SDS011;36212;48.838;9.142;2023-04-06T12:08:29;10.20;;;9.30;;
2544;SDS011;36212;48.838;9.142;2023-04-06T12:11:01;15.20;;;10.67;;
2544;SDS011;36212;48.838;9.142;2023-04-06T12:13:34;9.87;;;8.93;;
2544;SDS011;36212;48.838;9.142;2023-04-06T12:16:07;8.83;;;8.13;;
2544;SDS011;36212;48.838;9.142;2023-04-06T12:18:39;9.63;;;8.77;;
2544;SDS011;36212;48.838;9.142;2023-04-06T12:21:12;9.10;;;8.17;;
2544;SDS011;36212;48.838;9.142;2023-04-06T12:23:44;9.70;;;8.90;;
2544;SDS011;36212;48.838;9.142;2023-04-06T12:26:16;10.03;;;9.10;;
2544;SDS011;36212;48.838;9.142;2023-04-06T12:28:49;9.40;;;8.50;;
2544;SDS011;36212;48.838;9.142;2023-04-06T12:31:22;9.00;;;8.30;;
2544;SDS011;36212;48.838;9.142;2023-04-06T12:33:57;8.90;;;8.13;;
2544;SDS011;36212;48.838;9.142;2023-04-06T12:36:29;10.57;;;8.97;;
2544;SDS011;36212;48.838;9.142;2023-04-06T12:39:03;9.20;;;8.40;;
2544;SDS011;36212;48.838;9.142;2023-04-06T12:41:35;9.23;;;8.40;;
2544;SDS011;36212;48.838;9.142;2023-04-06T12:44:10;8.93;;;8.13;;
2544;SDS011;36212;48.838;9.142;2023-04-06T12:46:43;9.60;;;8.77;;
2544;SDS011;36212;48.838;9.142;2023-04-06T12:49:16;7.73;;;7.10;;
2544;SDS011;36212;48.838;9.142;2023-04-06T12:51:52;8.20;;;7.50;;
2544;SDS011;36212;48.838;9.142;2023-04-06T12:54:25;9.47;;;8.67;;
2544;SDS011;36212;48.838;9.142;2023-04-06T12:56:58;8.40;;;7.70;;
2544;SDS011;36212;48.838;9.142;2023-04-06T12:59:32;8.43;;;7.63;;
2544;SDS011;36212;48.838;9.142;2023-04-06T13:02:07;9.60;;;8.80;;
2544;SDS011;36212;48.838;9.142;2023-04-06T13:04:40;9.40;;;8.50;;
2544;SDS011;36212;48.838;9.142;2023-04-06T13:07:12;8.83;;;8.13;;
2544;SDS011;36212;48.838;9.142;2023-04-06T13:09:46;8.73;;;8.00;;
2544;SDS011;36212;48.838;9.142;2023-04-06T13:12:21;8.20;;;7.43;;
2544;SDS011;36212;48.838;9.142;2023-04-06T13:14:54;9.77;;;6.97;;
2544;SDS011;36212;48.838;9.142;2023-04-06T13:17:27;8.13;;;7.53;;
2544;SDS011;36212;48.838;9.142;2023-04-06T13:20:00;8.17;;;7.47;;
2544;SDS011;36212;48.838;9.142;2023-04-06T13:22:34;7.67;;;7.07;;
2544;SDS011;36212;48.838;9.142;2023-04-06T13:25:06;7.80;;;7.20;;
2544;SDS011;36212;48.838;9.142;2023-04-06T13:27:39;8.37;;;7.47;;
2544;SDS011;36212;48.838;9.142;2023-04-06T13:30:16;7.73;;;7.13;;
2544;SDS011;36212;48.838;9.142;2023-04-06T13:32:49;7.70;;;7.07;;
2544;SDS011;36212;48.838;9.142;2023-04-06T13:35:22;8.80;;;8.00;;
2544;SDS011;36212;48.838;9.142;2023-04-06T13:37:55;8.23;;;7.33;;
2544;SDS011;36212;48.838;9.142;2023-04-06T13:40:27;9.23;;;7.53;;
2544;SDS011;36212;48.838;9.142;2023-04-06T13:43:00;9.57;;;8.77;;
2544;SDS011;36212;48.838;9.142;2023-04-06T13:45:33;8.30;;;7.60;;
2544;SDS011;36212;48.838;9.142;2023-04-06T13:48:06;8.67;;;7.90;;
2544;SDS011;36212;48.838;9.142;2023-04-06T13:50:39;8.67;;;7.97;;
2544;SDS011;36212;48.838;9.142;2023-04-06T13:53:11;7.90;;;7.20;;
2544;SDS011;36212;48.838;9.142;2023-04-06T13:55:51;7.87;;;7.17;;
2544;SDS011;36212;48.838;9.142;2023-04-06T13:58:25;7.80;;;6.73;;
2544;SDS011;36212;48.838;9.142;2023-04-06T14:01:04;7.50;;;6.80;;
2544;SDS011;36212;48.838;9.142;2023-04-06T14:03:39;8.60;;;7.80;;
2544;SDS011;36212;48.838;9.142;2023-04-06T14:06:18;7.23;;;6.70;;
2544;SDS011;36212;48.838;9.142;2023-04-06T14:09:02;7.83;;;7.20;;
2544;SDS011;36212;48.838;9.142;2023-04-06T14:11:35;7.73;;;7.13;;
2544;SDS011;36212;48.838;9.142;2023-04-06T14:14:09;8.10;;;7.40;;
2544;SDS011;36212;48.838;9.142;2023-04-06T14:16:42;7.57;;;6.97;;
2544;SDS011;36212;48.838;9.142;2023-04-06T14:19:17;7.20;;;6.60;;
2544;SDS011;36212;48.838;9.142;2023-04-06T14:21:50;7.83;;;7.23;;
2544;SDS011;36212;48.838;9.142;2023-04-06T14:24:22;8.13;;;7.17;;
2544;SDS011;36212;48.838;9.142;2023-04-06T14:26:54;7.40;;;6.80;;
2544;SDS011;36212;48.838;9.142;2023-04-06T14:29:29;7.20;;;6.60;;
2544;SDS011;36212;48.838;9.142;2023-04-06T14:32:01;11.37;;;8.67;;
2544;SDS011;36212;48.838;9.142;2023-04-06T14:34:33;7.70;;;7.10;;
2544;SDS011;36212;48.838;9.142;2023-04-06T14:37:08;8.20;;;7.43;;
2544;SDS011;36212;48.838;9.142;2023-04-06T14:39:41;6.77;;;6.27;;
2544;SDS011;36212;48.838;9.142;2023-04-06T14:42:13;7.80;;;7.10;;
2544;SDS011;36212;48.838;9.142;2023-04-06T14:44:46;7.67;;;7.00;;
2544;SDS011;36212;48.838;9.142;2023-04-06T14:47:20;8.97;;;7.50;;
2544;SDS011;36212;48.838;9.142;2023-04-06T14:49:54;7.33;;;6.83;;
2544;SDS011;36212;48.838;9.142;2023-04-06T14:52:27;7.93;;;7.23;;
2544;SDS011;36212;48.838;9.142;2023-04-06T14:55:02;7.47;;;6.87;;
2544;SDS011;36212;48.838;9.142;2023-04-06T14:57:36;7.78;;;7.18;;
2544;SDS011;36212;48.838;9.142;2023-04-06T15:00:09;7.20;;;6.60;;
2544;SDS011;36212;48.838;9.142;2023-04-06T15:02:43;8.33;;;7.13;;
2544;SDS011;36212;48.838;9.142;2023-04-06T15:05:15;7.50;;;6.83;;
2544;SDS011;36212;48.838;9.142;2023-04-06T15:07:48;8.60;;;7.87;;
2544;SDS011;36212;48.838;9.142;2023-04-06T15:10:21;9.00;;;7.63;;
2544;SDS011;36212;48.838;9.142;2023-04-06T15:12:54;6.60;;;6.10;;
2544;SDS011;36212;48.838;9.142;2023-04-06T15:15:26;7.95;;;7.15;;
2544;SDS011;36212;48.838;9.142;2023-04-06T15:17:58;7.45;;;6.80;;
2544;SDS011;36212;48.838;9.142;2023-04-06T15:20:34;8.35;;;7.20;;
2544;SDS011;36212;48.838;9.142;2023-04-06T15:23:07;8.25;;;7.45;;
2544;SDS011;36212;48.838;9.142;2023-04-06T15:25:39;9.27;;;7.72;;
2544;SDS011;36212;48.838;9.142;2023-04-06T15:28:12;8.32;;;6.82;;
2544;SDS011;36212;48.838;9.142;2023-04-06T15:30:45;7.85;;;7.03;;